If you wish to contribute or participate in the discussions about articles you are invited to join SKYbrary as a registered user

 Actions

Porto Alegre/Salgado Filho International Airport

From SKYbrary Wiki

SBPA
Airport
ICAO: SBPA – IATA: PAO
Summary
Name Porto Alegre/Salgado Filho International Airport
Region South America and Caribbean
Territory Brazil BR.gif
Location Porto Alegre, Rio Grande do Sul
Serving Porto Alegre
Elevation 3.353 m
11 ft3.353 m
Coordinates 29° 59' 38.00" S, 51° 10' 16.00" W
Runways
Designator Length Width Surface ROPS
11/29 2280 m7,480.315 ft
42 m137.795 ft
ASP yes/yes


METAR
Observation SBPA 231700Z 13006KT 080V170 2500 -RA BKN005 OVC020 18/17 Q1015 RERA
Station Porto Alegre Aero-Porto
Date/Time 23 May 2019 17:00:00
Wind direction 130°
Wind speed 06 kts
Lowest cloud amount broken clouds
Temperature 18°C
Dew point 17°C
Humidity 93%
QNH 1015 hPa
Weather condition n/a

WX
Tag(s) Cumulonimbus

Salgado Filho International Airport is the airport in the capital of the Rio Grande do Sul state, Porto Alegre city, Brazil.

Climatology

Humid “subtropical” climate (Köppen climate classification Cfa) - characterized by hot, humid summers and cool winters. Significant amounts of precipitation occur in all seasons in most areas.

Maps

Terrain

Loading map...

Airport Layout

Loading map...


Accidents & Serious Incidents at or in vicinity of SBPA

None on SKYbrary